createdAt,value
2019-06-26T00:00:08.595Z,22.80
2019-06-26T00:02:34.669Z,22.90
2019-06-26T00:05:00.749Z,22.90
2019-06-26T00:07:26.845Z,23.00
2019-06-26T00:09:52.990Z,22.90
2019-06-26T00:12:19.100Z,22.80
2019-06-26T00:14:45.184Z,22.90
2019-06-26T00:17:11.255Z,22.80
2019-06-26T00:19:37.351Z,22.80
2019-06-26T00:22:03.419Z,22.80
2019-06-26T00:24:29.510Z,22.70
2019-06-26T00:26:55.583Z,22.70
2019-06-26T00:29:21.700Z,22.70
2019-06-26T00:31:47.767Z,22.70
2019-06-26T00:34:13.848Z,22.60
2019-06-26T00:36:39.931Z,22.60
2019-06-26T00:39:06.071Z,22.50
2019-06-26T00:41:32.167Z,22.50
2019-06-26T00:43:58.231Z,22.50
2019-06-26T00:46:24.338Z,22.40
2019-06-26T00:48:50.393Z,22.40
2019-06-26T00:51:16.527Z,22.40
2019-06-26T00:53:42.622Z,22.40
2019-06-26T00:56:08.735Z,22.40
2019-06-26T00:58:34.951Z,22.40
2019-06-26T01:01:01.057Z,22.40
2019-06-26T01:03:27.195Z,22.40
2019-06-26T01:05:53.382Z,22.40
2019-06-26T01:08:19.523Z,22.30
2019-06-26T01:10:45.774Z,22.30
2019-06-26T01:13:11.940Z,22.20
2019-06-26T01:15:38.052Z,22.20
2019-06-26T01:18:04.282Z,22.20
2019-06-26T01:20:30.522Z,22.20
2019-06-26T01:22:56.636Z,22.10
2019-06-26T01:25:22.873Z,22.10
2019-06-26T01:27:48.951Z,22.10
2019-06-26T01:30:15.719Z,22.00
2019-06-26T01:32:41.797Z,21.90
2019-06-26T01:35:08.686Z,21.90
2019-06-26T01:37:34.929Z,21.80
2019-06-26T01:40:01.588Z,21.80
2019-06-26T01:42:27.802Z,21.80
2019-06-26T01:44:53.949Z,21.80
2019-06-26T01:47:20.170Z,21.80
2019-06-26T01:49:46.236Z,21.70
2019-06-26T01:52:12.380Z,21.70
2019-06-26T01:54:38.496Z,21.70
2019-06-26T01:57:04.708Z,21.80
2019-06-26T01:59:30.815Z,21.70
2019-06-26T02:01:57.130Z,21.70
2019-06-26T02:04:23.250Z,21.70
2019-06-26T02:06:49.318Z,21.60
2019-06-26T02:09:15.431Z,21.70
2019-06-26T02:11:41.652Z,21.50
2019-06-26T02:14:07.838Z,21.50
2019-06-26T02:16:33.967Z,21.50
2019-06-26T02:19:02.069Z,21.50
2019-06-26T02:21:28.559Z,21.50
2019-06-26T02:23:54.634Z,21.40
2019-06-26T02:26:20.790Z,21.50
2019-06-26T02:28:46.962Z,21.40
2019-06-26T02:31:13.059Z,21.30
2019-06-26T02:33:39.147Z,21.30
2019-06-26T02:36:05.289Z,21.30
2019-06-26T02:38:31.457Z,21.30
2019-06-26T02:40:57.660Z,21.30
2019-06-26T02:43:23.958Z,21.30
2019-06-26T02:45:50.236Z,21.40
2019-06-26T02:48:18.459Z,21.40
2019-06-26T02:50:44.623Z,21.30
2019-06-26T02:53:10.765Z,21.40
2019-06-26T02:55:36.961Z,21.20
2019-06-26T02:58:03.149Z,21.20
2019-06-26T03:00:29.210Z,21.20
2019-06-26T03:02:55.318Z,21.20
2019-06-26T03:05:21.384Z,21.20
2019-06-26T03:07:47.640Z,21.20
2019-06-26T03:10:13.931Z,21.20
2019-06-26T03:12:40.000Z,21.10
2019-06-26T03:15:09.275Z,21.10
2019-06-26T03:17:35.097Z,21.10
2019-06-26T03:20:02.862Z,21.10
2019-06-26T03:22:28.990Z,20.90
2019-06-26T03:24:55.096Z,20.80
2019-06-26T03:27:21.191Z,20.90
2019-06-26T03:29:47.340Z,20.90
2019-06-26T03:32:13.514Z,21.00
2019-06-26T03:34:39.641Z,21.00
2019-06-26T03:37:05.785Z,20.90
2019-06-26T03:39:31.857Z,20.90
2019-06-26T03:41:58.045Z,20.80
2019-06-26T03:44:24.121Z,20.90
2019-06-26T03:46:50.233Z,21.00
2019-06-26T03:49:16.373Z,20.90
2019-06-26T03:51:42.565Z,20.80
2019-06-26T03:54:09.106Z,20.80
2019-06-26T03:56:35.320Z,20.90
2019-06-26T03:59:01.400Z,20.90
2019-06-26T04:01:27.517Z,20.90
2019-06-26T04:03:57.181Z,21.00
2019-06-26T04:06:21.617Z,21.00
2019-06-26T04:08:47.751Z,21.00
2019-06-26T04:11:13.825Z,21.00
2019-06-26T04:13:39.957Z,21.10
2019-06-26T04:16:06.076Z,21.10
2019-06-26T04:18:32.551Z,21.10
2019-06-26T04:20:58.668Z,21.10
2019-06-26T04:23:24.761Z,21.20
2019-06-26T04:25:50.888Z,21.20
2019-06-26T04:28:17.326Z,21.20
2019-06-26T04:30:43.434Z,21.30
2019-06-26T04:33:09.686Z,21.40
2019-06-26T04:35:35.826Z,21.40
2019-06-26T04:38:02.037Z,21.30
2019-06-26T04:40:28.157Z,21.40
2019-06-26T04:42:54.227Z,21.40
2019-06-26T04:45:20.432Z,21.50
2019-06-26T04:47:46.753Z,21.50
2019-06-26T04:50:13.550Z,21.60
2019-06-26T04:52:40.061Z,21.60
2019-06-26T04:55:06.787Z,21.60
2019-06-26T04:57:33.086Z,21.80
2019-06-26T04:59:59.189Z,21.90
2019-06-26T05:02:25.275Z,21.90
2019-06-26T05:04:51.362Z,22.00
2019-06-26T05:07:17.517Z,22.10
2019-06-26T05:09:43.612Z,22.20
2019-06-26T05:12:09.773Z,22.30
2019-06-26T05:14:35.993Z,22.30
2019-06-26T05:17:02.094Z,22.40
2019-06-26T05:19:28.217Z,22.50
2019-06-26T05:21:54.399Z,22.60
2019-06-26T05:24:20.503Z,22.60
2019-06-26T05:26:46.729Z,22.80
2019-06-26T05:29:12.927Z,22.80
2019-06-26T05:31:41.546Z,22.90
2019-06-26T05:34:10.906Z,23.00
2019-06-26T05:36:35.807Z,23.00
2019-06-26T05:39:02.350Z,23.10
2019-06-26T05:41:28.494Z,23.10
2019-06-26T05:43:54.636Z,23.20
2019-06-26T05:46:30.618Z,23.40
2019-06-26T05:48:48.802Z,23.50
2019-06-26T05:51:15.256Z,23.60
2019-06-26T05:53:41.390Z,23.70
2019-06-26T05:56:07.534Z,23.70
2019-06-26T05:58:33.726Z,23.70
2019-06-26T06:00:59.977Z,23.90
2019-06-26T06:03:26.196Z,24.00
2019-06-26T06:05:52.379Z,24.10
2019-06-26T06:08:18.538Z,24.30
2019-06-26T06:10:45.023Z,24.40
2019-06-26T06:13:11.110Z,24.40
2019-06-26T06:15:37.248Z,24.60
2019-06-26T06:18:03.568Z,24.70
2019-06-26T06:20:37.943Z,24.70
2019-06-26T06:23:04.643Z,24.80
2019-06-26T06:25:30.846Z,25.00
2019-06-26T06:27:57.012Z,25.20
2019-06-26T06:30:23.495Z,25.20
2019-06-26T06:32:49.684Z,25.30
2019-06-26T06:35:15.901Z,25.40
2019-06-26T06:37:42.012Z,25.50
2019-06-26T06:40:08.924Z,25.70
2019-06-26T06:42:35.143Z,25.80
2019-06-26T06:45:01.974Z,25.70
2019-06-26T06:47:48.206Z,25.80
2019-06-26T06:50:14.666Z,25.90
2019-06-26T06:52:40.894Z,26.10
2019-06-26T06:55:07.572Z,26.30
2019-06-26T06:57:33.845Z,26.30
2019-06-26T06:59:59.988Z,26.50
2019-06-26T07:02:26.398Z,26.50
2019-06-26T07:04:52.599Z,26.60
2019-06-26T07:07:18.715Z,26.70
2019-06-26T07:09:44.914Z,26.70
2019-06-26T07:12:10.990Z,26.70
2019-06-26T07:14:37.126Z,26.80
2019-06-26T07:17:16.098Z,27.20
2019-06-26T07:19:31.693Z,27.30
2019-06-26T07:21:57.920Z,27.40
2019-06-26T07:24:24.012Z,27.30
2019-06-26T07:26:50.142Z,27.20
2019-06-26T07:29:16.319Z,27.40
2019-06-26T07:31:42.480Z,27.40
2019-06-26T07:34:08.590Z,27.40
2019-06-26T07:36:34.784Z,27.50
2019-06-26T07:39:01.001Z,27.60
2019-06-26T07:41:27.207Z,27.60
2019-06-26T07:43:53.478Z,27.60
2019-06-26T07:46:19.653Z,27.80
2019-06-26T07:48:45.817Z,28.00
2019-06-26T07:51:11.907Z,28.10
2019-06-26T07:53:38.114Z,28.30
2019-06-26T07:56:04.213Z,28.50
2019-06-26T07:58:30.384Z,28.60
2019-06-26T08:00:56.695Z,28.80
2019-06-26T08:03:22.805Z,28.90
2019-06-26T08:05:48.934Z,29.00
2019-06-26T08:08:15.495Z,29.20
2019-06-26T08:10:41.611Z,29.30
2019-06-26T08:13:07.671Z,29.20
2019-06-26T08:15:33.858Z,29.20
2019-06-26T08:18:01.523Z,29.40
2019-06-26T08:20:28.234Z,29.50
2019-06-26T08:22:54.396Z,29.80
2019-06-26T08:25:20.471Z,30.00
2019-06-26T08:27:47.458Z,30.10
2019-06-26T08:30:14.283Z,30.20
2019-06-26T08:32:40.534Z,30.40
2019-06-26T08:35:07.066Z,30.50
2019-06-26T08:37:33.253Z,30.50
2019-06-26T08:39:59.329Z,30.60
2019-06-26T08:42:25.572Z,30.70
2019-06-26T08:44:51.754Z,30.70
2019-06-26T08:47:17.904Z,30.80
2019-06-26T08:49:44.125Z,30.80
2019-06-26T08:52:10.400Z,31.00
2019-06-26T08:54:36.650Z,30.80
2019-06-26T08:57:02.962Z,31.00
2019-06-26T08:59:29.024Z,31.10
2019-06-26T09:01:55.165Z,31.30
2019-06-26T09:04:21.515Z,31.40
2019-06-26T09:06:47.678Z,31.30
2019-06-26T09:09:13.764Z,31.60
2019-06-26T09:11:39.897Z,31.70
2019-06-26T09:14:06.092Z,31.70
2019-06-26T09:16:32.458Z,31.70
2019-06-26T09:18:58.678Z,31.80
2019-06-26T09:21:24.870Z,31.90
2019-06-26T09:23:51.174Z,32.00
2019-06-26T09:26:17.337Z,32.20
2019-06-26T09:28:43.549Z,32.20
2019-06-26T09:31:09.688Z,32.20
2019-06-26T09:33:35.770Z,32.30
2019-06-26T09:36:01.984Z,32.10
2019-06-26T09:38:28.196Z,32.00
2019-06-26T09:40:54.293Z,32.10
2019-06-26T09:43:20.441Z,32.20
2019-06-26T09:45:46.616Z,32.20
2019-06-26T09:48:12.709Z,32.40
2019-06-26T09:50:38.875Z,32.50
2019-06-26T09:53:05.642Z,32.40
2019-06-26T09:55:31.998Z,32.30
2019-06-26T09:57:59.353Z,32.30
2019-06-26T10:00:26.162Z,32.30
2019-06-26T10:02:52.451Z,32.40
2019-06-26T10:05:18.936Z,32.50
2019-06-26T10:07:45.142Z,32.60
2019-06-26T10:10:12.835Z,32.70
2019-06-26T10:12:39.039Z,32.90
2019-06-26T10:15:05.905Z,32.80
2019-06-26T10:17:32.257Z,33.00
2019-06-26T10:19:58.432Z,33.00
2019-06-26T10:22:24.499Z,33.20
2019-06-26T10:24:50.649Z,33.30
2019-06-26T10:27:16.861Z,33.10
2019-06-26T10:29:42.954Z,33.00
2019-06-26T10:32:09.372Z,33.00
2019-06-26T10:34:35.587Z,33.10
2019-06-26T10:37:01.691Z,33.20
2019-06-26T10:39:27.934Z,33.50
2019-06-26T10:42:09.449Z,33.60
2019-06-26T10:44:35.698Z,33.70
2019-06-26T10:47:02.015Z,33.80
2019-06-26T10:49:28.209Z,34.00
2019-06-26T10:51:54.497Z,34.10
2019-06-26T10:54:20.687Z,34.00
2019-06-26T10:56:46.804Z,34.10
2019-06-26T10:59:13.040Z,34.10
2019-06-26T11:01:39.165Z,34.20
2019-06-26T11:04:05.337Z,34.30
2019-06-26T11:06:31.509Z,34.20
2019-06-26T11:08:57.635Z,34.10
2019-06-26T11:11:23.850Z,34.20
2019-06-26T11:13:50.189Z,34.20
2019-06-26T11:16:16.386Z,34.20
2019-06-26T11:18:42.484Z,34.30
2019-06-26T11:21:08.612Z,34.20
2019-06-26T11:23:35.828Z,34.30
2019-06-26T11:26:01.931Z,34.40
2019-06-26T11:28:28.167Z,34.30
2019-06-26T11:30:54.284Z,34.30
2019-06-26T11:33:20.384Z,34.40
2019-06-26T11:35:46.513Z,34.50
2019-06-26T11:38:12.652Z,34.70
2019-06-26T11:40:38.884Z,34.70
2019-06-26T11:43:05.072Z,34.70
2019-06-26T11:45:31.301Z,34.70
2019-06-26T11:47:57.494Z,34.90
2019-06-26T11:50:23.937Z,34.70
2019-06-26T11:52:50.347Z,34.80
2019-06-26T11:55:18.156Z,34.70
2019-06-26T11:57:44.388Z,34.70
2019-06-26T12:00:17.306Z,34.40
2019-06-26T12:03:03.256Z,34.40
2019-06-26T12:05:29.416Z,34.60
2019-06-26T12:07:55.492Z,34.80
2019-06-26T12:10:22.126Z,34.90
2019-06-26T12:12:48.281Z,35.00
2019-06-26T12:15:17.150Z,35.10
2019-06-26T12:17:43.438Z,35.20
2019-06-26T12:20:18.740Z,35.10
2019-06-26T12:22:38.722Z,35.10
2019-06-26T12:25:05.278Z,35.30
2019-06-26T12:27:31.451Z,35.30
2019-06-26T12:29:57.613Z,35.40
2019-06-26T12:32:23.707Z,35.50
2019-06-26T12:34:50.176Z,35.30
2019-06-26T12:37:16.347Z,35.30
2019-06-26T12:39:42.496Z,35.00
2019-06-26T12:42:08.630Z,35.10
2019-06-26T12:44:34.834Z,35.20
2019-06-26T12:47:01.115Z,35.30
2019-06-26T12:49:27.335Z,35.50
2019-06-26T12:51:53.450Z,35.70
2019-06-26T12:54:39.590Z,35.70
2019-06-26T12:57:05.819Z,35.90
2019-06-26T12:59:31.986Z,35.90
2019-06-26T13:01:58.107Z,36.00
2019-06-26T13:04:45.069Z,36.10
2019-06-26T13:07:11.452Z,36.00
2019-06-26T13:09:37.572Z,36.00
2019-06-26T13:12:04.739Z,36.10
2019-06-26T13:14:31.030Z,35.90
2019-06-26T13:16:59.010Z,36.00
2019-06-26T13:19:25.165Z,36.00
2019-06-26T13:22:11.135Z,35.90
2019-06-26T13:24:37.310Z,36.10
2019-06-26T13:27:03.588Z,36.20
2019-06-26T13:29:29.732Z,36.20
2019-06-26T13:31:56.091Z,36.30
2019-06-26T13:34:22.187Z,36.40
2019-06-26T13:36:48.319Z,36.40
2019-06-26T13:39:14.422Z,36.30
2019-06-26T13:41:40.589Z,36.20
2019-06-26T13:44:06.743Z,36.40
2019-06-26T13:46:32.908Z,36.40
2019-06-26T13:48:59.161Z,36.40
2019-06-26T13:51:25.369Z,36.40
2019-06-26T13:53:51.639Z,36.50
2019-06-26T13:56:17.798Z,36.30
2019-06-26T13:58:43.863Z,36.00
2019-06-26T14:01:09.952Z,36.10
2019-06-26T14:03:36.090Z,36.10
2019-06-26T14:06:02.400Z,36.30
2019-06-26T14:08:28.525Z,36.30
2019-06-26T14:10:54.755Z,36.50
2019-06-26T14:13:20.927Z,36.60
2019-06-26T14:15:47.146Z,36.60
2019-06-26T14:18:13.391Z,36.70
2019-06-26T14:20:39.605Z,36.80
2019-06-26T14:23:05.682Z,36.90
2019-06-26T14:25:31.837Z,37.00
2019-06-26T14:27:58.037Z,36.80
2019-06-26T14:30:27.677Z,36.90
2019-06-26T14:32:52.180Z,37.00
2019-06-26T14:35:18.365Z,36.60
2019-06-26T14:37:44.502Z,36.80
2019-06-26T14:40:11.114Z,36.40
2019-06-26T14:42:37.328Z,36.40
2019-06-26T14:45:08.300Z,36.50
2019-06-26T14:47:35.625Z,36.70
2019-06-26T14:50:04.306Z,36.70
2019-06-26T14:52:30.542Z,36.60
2019-06-26T14:54:56.758Z,36.70
2019-06-26T14:57:25.867Z,36.80
2019-06-26T14:59:50.959Z,36.70
2019-06-26T15:02:17.162Z,36.70
2019-06-26T15:04:46.105Z,36.60
2019-06-26T15:07:11.285Z,36.40
2019-06-26T15:09:37.420Z,36.20
2019-06-26T15:12:03.496Z,36.20
2019-06-26T15:14:29.631Z,36.10
2019-06-26T15:16:55.725Z,36.00
2019-06-26T15:19:21.831Z,35.70
2019-06-26T15:21:57.913Z,35.50
2019-06-26T15:24:16.054Z,35.60
2019-06-26T15:26:42.214Z,35.60
2019-06-26T15:29:08.431Z,35.60
2019-06-26T15:31:34.552Z,35.50
2019-06-26T15:34:00.647Z,35.50
2019-06-26T15:36:26.841Z,35.40
2019-06-26T15:38:52.965Z,35.50
2019-06-26T15:41:19.115Z,35.40
2019-06-26T15:43:45.299Z,35.30
2019-06-26T15:46:11.424Z,35.40
2019-06-26T15:48:37.571Z,35.40
2019-06-26T15:51:03.857Z,35.20
2019-06-26T15:53:30.141Z,35.20
2019-06-26T15:55:56.284Z,35.30
2019-06-26T15:58:22.457Z,35.20
2019-06-26T16:00:48.636Z,35.20
2019-06-26T16:03:14.805Z,35.20
2019-06-26T16:05:40.987Z,35.20
2019-06-26T16:08:07.092Z,35.10
2019-06-26T16:10:34.622Z,35.00
2019-06-26T16:13:00.981Z,35.00
2019-06-26T16:15:35.927Z,35.00
2019-06-26T16:18:04.290Z,35.00
2019-06-26T16:20:30.464Z,34.90
2019-06-26T16:23:03.828Z,34.90
2019-06-26T16:25:29.946Z,34.80
2019-06-26T16:28:05.326Z,34.80
2019-06-26T16:30:39.545Z,34.80
2019-06-26T16:33:05.760Z,34.80
2019-06-26T16:35:31.854Z,34.60
2019-06-26T16:37:57.964Z,34.60
2019-06-26T16:40:24.297Z,34.50
2019-06-26T16:42:50.510Z,34.50
2019-06-26T16:45:17.497Z,34.40
2019-06-26T16:47:43.628Z,34.40
2019-06-26T16:50:10.160Z,34.40
2019-06-26T16:52:48.421Z,34.30
2019-06-26T16:55:06.017Z,34.30
2019-06-26T16:57:32.127Z,34.30
2019-06-26T17:00:08.827Z,34.20
2019-06-26T17:02:26.335Z,34.20
2019-06-26T17:04:52.716Z,34.20
2019-06-26T17:07:18.941Z,34.20
2019-06-26T17:09:45.191Z,34.20
2019-06-26T17:12:11.352Z,34.20
2019-06-26T17:14:57.325Z,34.00
2019-06-26T17:17:23.467Z,34.00
2019-06-26T17:19:49.584Z,33.90
2019-06-26T17:22:15.715Z,33.90
2019-06-26T17:24:41.925Z,33.90
2019-06-26T17:27:08.021Z,33.80
2019-06-26T17:29:34.132Z,33.70
2019-06-26T17:32:00.281Z,33.60
2019-06-26T17:34:27.386Z,33.50
2019-06-26T17:36:53.668Z,33.50
2019-06-26T17:39:19.864Z,33.40
2019-06-26T17:41:45.996Z,33.20
2019-06-26T17:44:12.106Z,33.10
2019-06-26T17:46:38.276Z,33.10
2019-06-26T17:49:04.596Z,33.10
2019-06-26T17:51:30.744Z,33.00
2019-06-26T17:53:56.892Z,33.00
2019-06-26T17:56:23.115Z,32.90
2019-06-26T17:58:49.298Z,32.80
2019-06-26T18:01:15.614Z,32.70
2019-06-26T18:03:41.708Z,32.70
2019-06-26T18:06:27.675Z,32.60
2019-06-26T18:08:53.831Z,32.50
2019-06-26T18:11:20.036Z,32.40
2019-06-26T18:13:46.205Z,32.40
2019-06-26T18:16:12.419Z,32.30
2019-06-26T18:18:38.792Z,32.30
2019-06-26T18:21:04.891Z,32.20
2019-06-26T18:23:37.628Z,32.20
2019-06-26T18:26:12.327Z,32.20
2019-06-26T18:28:27.210Z,32.10
2019-06-26T18:30:53.374Z,32.00
2019-06-26T18:33:19.476Z,31.90
2019-06-26T18:35:45.614Z,31.80
2019-06-26T18:38:12.025Z,31.80
2019-06-26T18:40:38.326Z,31.70
2019-06-26T18:43:04.530Z,31.60
2019-06-26T18:45:30.856Z,31.50
2019-06-26T18:47:56.998Z,31.40
2019-06-26T18:50:23.559Z,31.30
2019-06-26T18:52:49.785Z,31.30
2019-06-26T18:55:16.335Z,31.20
2019-06-26T18:57:42.509Z,31.00
2019-06-26T19:00:09.032Z,31.00
2019-06-26T19:02:35.111Z,30.90
2019-06-26T19:05:01.245Z,30.80
2019-06-26T19:07:27.524Z,30.70
2019-06-26T19:09:53.858Z,30.60
2019-06-26T19:12:20.229Z,30.40
2019-06-26T19:14:46.421Z,30.30
2019-06-26T19:17:12.547Z,30.30
2019-06-26T19:19:38.735Z,30.10
2019-06-26T19:22:05.047Z,29.90
2019-06-26T19:24:31.169Z,29.70
2019-06-26T19:26:57.277Z,29.70
2019-06-26T19:29:23.523Z,29.60
2019-06-26T19:31:49.748Z,29.50
2019-06-26T19:34:15.950Z,29.50
2019-06-26T19:36:50.183Z,29.50
2019-06-26T19:39:10.082Z,29.30
2019-06-26T19:41:36.229Z,29.20
2019-06-26T19:44:02.867Z,29.20
2019-06-26T19:46:29.083Z,29.10
2019-06-26T19:48:57.494Z,29.10
2019-06-26T19:51:23.347Z,29.00
2019-06-26T19:53:49.562Z,29.00
2019-06-26T19:56:15.695Z,28.90
2019-06-26T19:58:41.880Z,28.60
2019-06-26T20:01:08.047Z,28.50
2019-06-26T20:03:34.306Z,28.40
2019-06-26T20:06:00.446Z,28.20
2019-06-26T20:08:26.547Z,28.20
2019-06-26T20:10:52.718Z,28.10
2019-06-26T20:13:18.913Z,28.00
2019-06-26T20:15:45.073Z,28.10
2019-06-26T20:18:11.224Z,28.00
2019-06-26T20:20:37.444Z,28.00
2019-06-26T20:23:03.794Z,27.90
2019-06-26T20:25:30.015Z,27.90
2019-06-26T20:27:57.307Z,27.80
2019-06-26T20:30:27.571Z,27.70
2019-06-26T20:32:53.707Z,27.70
2019-06-26T20:35:19.896Z,27.70
2019-06-26T20:37:46.184Z,27.70
2019-06-26T20:40:12.682Z,27.60
2019-06-26T20:42:38.943Z,27.50
2019-06-26T20:45:05.956Z,27.40
2019-06-26T20:47:32.042Z,27.30
2019-06-26T20:49:58.169Z,27.10
2019-06-26T20:52:24.332Z,27.10
2019-06-26T20:55:00.579Z,27.00
2019-06-26T20:57:18.603Z,27.10
2019-06-26T20:59:44.826Z,26.90
2019-06-26T21:02:10.975Z,26.80
2019-06-26T21:04:37.124Z,26.80
2019-06-26T21:07:03.317Z,26.90
2019-06-26T21:09:29.591Z,27.00
2019-06-26T21:11:55.782Z,27.10
2019-06-26T21:14:21.906Z,27.10
2019-06-26T21:16:48.054Z,27.00
2019-06-26T21:19:14.234Z,26.90
2019-06-26T21:21:40.526Z,26.90
2019-06-26T21:24:06.692Z,26.90
2019-06-26T21:26:32.922Z,26.70
2019-06-26T21:29:00.856Z,26.70
2019-06-26T21:31:27.356Z,26.60
2019-06-26T21:33:53.505Z,26.20
2019-06-26T21:36:19.750Z,25.90
2019-06-26T21:38:45.970Z,25.90
2019-06-26T21:41:12.111Z,25.90
2019-06-26T21:43:38.336Z,25.80
2019-06-26T21:46:04.462Z,25.70
2019-06-26T21:48:30.610Z,25.70
2019-06-26T21:50:56.780Z,25.60
2019-06-26T21:53:22.878Z,25.60
2019-06-26T21:55:49.090Z,25.80
2019-06-26T21:58:15.288Z,25.80
2019-06-26T22:00:41.758Z,25.90
2019-06-26T22:03:07.840Z,25.90
2019-06-26T22:05:33.910Z,25.90
2019-06-26T22:08:00.053Z,25.70
2019-06-26T22:10:26.389Z,25.60
2019-06-26T22:12:52.590Z,25.50
2019-06-26T22:15:18.837Z,25.50
2019-06-26T22:17:45.118Z,25.40
2019-06-26T22:20:13.146Z,25.40
2019-06-26T22:22:39.340Z,25.40
2019-06-26T22:25:07.186Z,25.40
2019-06-26T22:27:33.390Z,25.40
2019-06-26T22:29:59.639Z,25.50
2019-06-26T22:32:25.708Z,25.40
2019-06-26T22:34:52.349Z,25.40
2019-06-26T22:37:18.514Z,25.30
2019-06-26T22:39:44.608Z,25.30
2019-06-26T22:42:10.728Z,25.20
2019-06-26T22:44:36.939Z,25.10
2019-06-26T22:47:03.169Z,25.00
2019-06-26T22:49:29.391Z,24.90
2019-06-26T22:51:55.573Z,24.90
2019-06-26T22:54:21.820Z,24.90
2019-06-26T22:56:47.898Z,25.00
2019-06-26T22:59:14.005Z,25.00
2019-06-26T23:01:40.455Z,25.00
2019-06-26T23:04:06.842Z,25.10
2019-06-26T23:06:32.995Z,25.20
2019-06-26T23:08:59.139Z,25.10
2019-06-26T23:11:25.313Z,25.00
2019-06-26T23:13:51.446Z,25.00
2019-06-26T23:16:17.853Z,25.00
2019-06-26T23:18:43.939Z,25.00
2019-06-26T23:21:10.052Z,25.00
2019-06-26T23:23:36.387Z,25.00
2019-06-26T23:26:02.615Z,25.00
2019-06-26T23:28:28.989Z,24.80
2019-06-26T23:30:55.063Z,24.70
2019-06-26T23:33:41.182Z,24.70
2019-06-26T23:36:07.372Z,24.60
2019-06-26T23:38:33.639Z,24.40
2019-06-26T23:40:59.960Z,24.40
2019-06-26T23:43:26.145Z,24.20
2019-06-26T23:45:52.290Z,24.10
2019-06-26T23:48:18.379Z,24.00
2019-06-26T23:50:44.625Z,24.10
2019-06-26T23:53:10.882Z,23.90
2019-06-26T23:55:36.982Z,24.00
2019-06-26T23:58:03.060Z,23.90
